• Join FlightAware (Why Join?)
  • Login
  • US Flag 
01:31PM EST


 

Airport Tracker/Info


-or-


 

Live Flight TrackerFlight Track Log ✈ TYR472 ✈ 22-Aug-2014 ✈ LFSB / EAP - LOWW / VIE

Flight Track Log - Related Links

Times and Time Zones

All times are in EDT time to prevent confusion due to time zone crossing. See the TYR472 flight status page for this flight to view local times or setup timezone preferences in your user account.

Time Position Orientation Groundspeed Altitude Reporting Facility
EDT Latitude Longitude Course Direction KTS MPH feet Rate Location/Type
04:31AM 47.6218 7.8650 82° East  Level Estimated
04:32AM 47.6324 7.9769 82° East  Level Estimated
04:33AM 47.6428 8.0887 82° East  Level Estimated
04:34AM 47.6531 8.2006 82° East  Level Estimated
04:35AM 47.6633 8.3125 82° East  Level Estimated
04:36AM 47.6735 8.4245 82° East  Level Estimated
04:37AM 47.6834 8.5365 82° East  Level Estimated
04:38AM 47.6933 8.6486 82° East  Level Estimated
04:39AM 47.7031 8.7607 83° East  Level Estimated
04:40AM 47.7128 8.8729 83° East  Level Estimated
04:41AM 47.7223 8.9851 83° East  Level Estimated
04:42AM 47.7318 9.0973 83° East  Level Estimated
04:43AM 47.7411 9.2096 83° East  Level Estimated
04:44AM 47.7503 9.3219 83° East  Level Estimated
04:45AM 47.7594 9.4342 83° East  Level Estimated
04:46AM 47.7685 9.5466 83° East  Level Estimated
04:47AM 47.7774 9.6590 83° East  Level Estimated
04:48AM 47.7862 9.7715 83° East  Level Estimated
04:49AM 47.7948 9.8840 83° East  Level Estimated
04:50AM 47.8034 9.9966 83° East  Level Estimated
04:51AM 47.8119 10.1091 84° East  Level Estimated
04:52AM 47.8202 10.2218 84° East  Level Estimated
04:53AM 47.8284 10.3344 84° East  Level Estimated
04:54AM 47.8366 10.4471 84° East  Level Estimated
04:55AM 47.8446 10.5598 84° East  Level Estimated
04:56AM 47.8525 10.6726 84° East  Level Estimated
04:57AM 47.8603 10.7854 84° East  Level Estimated
04:58AM 47.8680 10.8982 84° East  Level Estimated
04:59AM 47.8756 11.0111 84° East  Level Estimated
05:00AM 47.8830 11.1240 84° East  Level Estimated
05:01AM 47.8904 11.2369 84° East  Level Estimated
05:02AM 47.8976 11.3498 84° East  Level Estimated
05:03AM 47.9048 11.4628 85° East  Level Estimated
05:04AM 47.9118 11.5758 85° East  Level Estimated
05:05AM 47.9187 11.6889 85° East  Level Estimated
05:06AM 47.9255 11.8020 85° East  Level Estimated
05:07AM 47.9322 11.9151 85° East  Level Estimated
05:08AM 47.9388 12.0282 85° East  Level Estimated
05:09AM 47.9452 12.1414 85° East  Level Estimated
05:10AM 47.9516 12.2546 85° East  Level Estimated
05:11AM 47.9578 12.3678 85° East  Level Estimated
05:12AM 47.9640 12.4810 85° East  Level Estimated
05:13AM 47.9700 12.5943 85° East  Level Estimated
05:14AM 47.9759 12.7076 86° East  Level Estimated
05:15AM 47.9817 12.8210 86° East  Level Estimated
05:16AM 47.9874 12.9343 86° East  Level Estimated
05:17AM 47.9930 13.0477 86° East  Level Estimated
05:18AM 47.9984 13.1611 86° East  Level Estimated
05:19AM 48.0038 13.2745 86° East  Level Estimated
05:20AM 48.0090 13.3880 86° East  Level Estimated
05:21AM 48.0142 13.5014 86° East  Level Estimated
05:22AM 48.0192 13.6149 86° East  Level Estimated
05:23AM 48.0241 13.7284 86° East  Level Estimated
05:24AM 48.0289 13.8420 86° East  Level Estimated
05:25AM 48.0336 13.9555 86° East  Level Estimated
05:26AM 48.0381 14.0691 87° East  Level Estimated
05:27AM 48.0426 14.1827 87° East  Level Estimated
05:28AM 48.0470 14.2963 87° East  Level Estimated
05:29AM 48.0512 14.4100 87° East  Level Estimated
05:30AM 48.0553 14.5236 87° East  Level Estimated
05:31AM 48.0593 14.6373 87° East  Level Estimated
05:32AM 48.0632 14.7510 87° East  Level Estimated
05:33AM 48.0670 14.8647 87° East  Level Estimated
05:34AM 48.0707 14.9784 87° East  Level Estimated
05:35AM 48.0742 15.0922 87° East  Level Estimated
05:36AM 48.0777 15.2059 87° East  Level Estimated
05:37AM 48.0810 15.3197 87° East  Level Estimated
05:38AM 48.0843 15.4335 88° East  Level Estimated
05:39AM 48.0874 15.5473 88° East  Level Estimated
05:40AM 48.0904 15.6611 88° East  Level Estimated
05:41AM 48.0933 15.7749 88° East  Level Estimated
05:42AM 48.0960 15.8888 88° East  Level Estimated
05:43AM 48.0987 16.0026 88° East  Level Estimated
05:44AM 48.1012 16.1165 88° East  Level Estimated
05:45AM 48.1037 16.2303 88° East  Level Estimated
05:46AM 48.1060 16.3442 88° East  Level Estimated
05:47AM 48.1082 16.4581 88° East  Level Estimated
05:48AM 48.1103 16.5697 88° East  Level Estimated